Time;durP1;ratioP1;P1;durP2;ratioP2;P2;SDS_P1;SDS_P2;PMS_P1;PMS_P2;Temp;Humidity;BMP_temperature;BMP_pressure;BME280_temperature;BME280_humidity;BME280_pressure;Samples;Min_cycle;Max_cycle;Signal;HPM_P1;HPM_P2
2022/08/05 00:01:35;;;;;;;;;6.25;4.50;;;;;25.97;46.70;100928.94;5035777;28;45449;-49
2022/08/05 00:04:00;;;;;;;;;5.50;4.25;;;;;25.92;47.03;100954.06;5034957;28;46328;-50
2022/08/05 00:06:26;;;;;;;;;4.25;3.75;;;;;25.87;47.44;101051.81;5036742;28;45446;-49
2022/08/05 00:08:51;;;;;;;;;5.75;3.50;;;;;25.89;47.34;101080.91;5054418;28;45857;-52
2022/08/05 00:11:16;;;;;;;;;2.50;2.50;;;;;25.91;47.15;101126.75;5052883;28;45278;-56
2022/08/05 00:13:44;;;;;;;;;4.00;3.00;;;;;25.94;47.31;101163.72;5037302;28;45267;-52
2022/08/05 00:16:11;;;;;;;;;5.00;3.25;;;;;25.97;47.40;101175.91;5036088;28;45326;-49
2022/08/05 00:18:37;;;;;;;;;4.00;4.00;;;;;25.99;46.99;101188.16;5035601;28;45401;-49
2022/08/05 00:21:03;;;;;;;;;5.25;4.00;;;;;26.01;46.85;101158.81;5036964;28;45348;-49
2022/08/05 00:23:28;;;;;;;;;4.25;3.75;;;;;26.03;47.21;101138.31;5034954;28;46066;-50
2022/08/05 00:25:53;;;;;;;;;3.75;3.75;;;;;26.03;47.17;101139.13;5034512;28;45805;-50
2022/08/05 00:28:19;;;;;;;;;3.50;3.50;;;;;26.04;47.38;101175.34;5035051;28;45267;-50
2022/08/05 00:30:45;;;;;;;;;4.00;3.00;;;;;26.05;46.96;101174.41;5034946;28;45318;-50
2022/08/05 00:33:10;;;;;;;;;3.00;3.00;;;;;26.03;47.45;101087.84;5033139;28;45760;-49
2022/08/05 00:35:36;;;;;;;;;4.00;2.00;;;;;26.04;47.49;101031.09;5035034;28;45272;-50
2022/08/05 00:38:01;;;;;;;;;3.00;3.00;;;;;26.07;47.49;101155.72;5038289;28;45778;-53
2022/08/05 00:40:27;;;;;;;;;3.25;3.25;;;;;26.06;47.34;101193.84;5038590;28;45979;-50
2022/08/05 00:42:53;;;;;;;;;2.75;2.75;;;;;26.06;47.68;101236.34;5037952;28;45295;-51
2022/08/05 00:45:19;;;;;;;;;3.25;3.25;;;;;26.06;47.38;101228.38;5038288;28;45235;-50
2022/08/05 00:47:44;;;;;;;;;5.75;4.00;;;;;26.04;47.55;101150.63;5038137;28;45280;-53
2022/08/05 00:50:10;;;;;;;;;3.75;3.50;;;;;26.04;46.94;101132.84;5038738;28;45334;-51
2022/08/05 00:52:35;;;;;;;;;4.00;4.00;;;;;26.05;47.58;101154.97;5039034;28;46091;-51
2022/08/05 00:55:01;;;;;;;;;5.75;4.00;;;;;26.04;47.32;101114.28;5038237;28;45322;-49
2022/08/05 00:57:26;;;;;;;;;3.50;2.00;;;;;26.06;47.12;101082.31;5038277;28;45421;-49
2022/08/05 00:59:52;;;;;;;;;4.00;4.00;;;;;26.06;47.52;101141.56;5037979;28;45392;-49
2022/08/05 01:02:18;;;;;;;;;3.00;3.00;;;;;26.07;47.34;101222.94;5038093;28;45443;-49
2022/08/05 01:04:43;;;;;;;;;1.00;1.00;;;;;26.06;47.37;101204.47;5039767;28;45334;-50
2022/08/05 01:07:09;;;;;;;;;5.00;3.00;;;;;26.06;47.27;101162.81;5052145;28;45216;-49
2022/08/05 01:09:34;;;;;;;;;6.00;3.00;;;;;26.07;46.90;101070.72;5041258;28;45227;-49
2022/08/05 01:12:07;;;;;;;;;2.00;2.00;;;;;26.06;47.06;101069.03;5041104;28;55247;-50
2022/08/05 01:14:40;;;;;;;;;2.25;2.25;;;;;26.07;46.73;101150.41;5048516;28;45281;-50
2022/08/05 01:17:10;;;;;;;;;2.25;2.00;;;;;26.05;46.97;101186.84;5037502;28;45387;-50
2022/08/05 01:19:54;;;;;;;;;2.75;2.50;;;;;26.03;47.11;101173.66;5038192;28;45405;-51
2022/08/05 01:22:37;;;;;;;;;3.00;3.00;;;;;26.03;46.67;101180.78;5037571;28;46567;-51
2022/08/05 01:25:33;;;;;;;;;4.00;3.50;;;;;26.04;46.60;101207.22;5021534;28;45454;-49
2022/08/05 01:28:08;;;;;;;;;2.00;2.00;;;;;26.04;46.62;101180.66;5056529;28;45373;-49
2022/08/05 01:30:36;;;;;;;;;3.00;2.00;;;;;26.04;46.75;101121.41;5068425;28;45903;-50
2022/08/05 01:33:08;;;;;;;;;3.75;3.00;;;;;26.01;46.98;101093.28;5041394;28;46827;-50
2022/08/05 01:35:36;;;;;;;;;3.00;2.00;;;;;26.02;46.76;101084.31;5038081;28;45352;-50
2022/08/05 01:38:03;;;;;;;;;3.00;3.00;;;;;26.00;46.53;101067.69;5037393;28;45357;-49
2022/08/05 01:40:31;;;;;;;;;2.50;2.50;;;;;25.99;46.02;101049.19;5037557;28;45543;-49
2022/08/05 01:43:00;;;;;;;;;2.00;2.00;;;;;26.00;46.33;101034.94;5036969;28;46333;-48
2022/08/05 01:45:28;;;;;;;;;3.00;2.00;;;;;25.99;46.17;101076.59;5037472;28;45790;-52
2022/08/05 01:47:54;;;;;;;;;2.50;2.50;;;;;25.99;46.06;101102.28;5036123;28;45410;-52
2022/08/05 01:50:25;;;;;;;;;2.50;2.50;;;;;25.98;46.51;101072.25;5037728;28;45318;-50
2022/08/05 01:52:53;;;;;;;;;2.00;2.00;;;;;25.97;46.48;101104.22;5035529;28;46023;-50
2022/08/05 01:55:22;;;;;;;;;1.75;1.75;;;;;25.99;46.24;101120.88;5046170;28;45336;-49
2022/08/05 01:57:49;;;;;;;;;2.00;2.00;;;;;25.98;45.94;101111.22;5060351;28;45349;-52
2022/08/05 02:00:15;;;;;;;;;3.00;1.25;;;;;25.97;46.00;101094.47;5037535;28;45435;-54
2022/08/05 02:02:46;;;;;;;;;4.00;3.00;;;;;25.97;46.30;101083.84;5036896;28;48309;-51
2022/08/05 02:05:13;;;;;;;;;2.25;2.00;;;;;25.95;46.52;101095.53;5037349;28;45680;-55
2022/08/05 02:07:42;;;;;;;;;3.00;2.50;;;;;25.97;46.19;101106.88;5036935;28;45291;-56
2022/08/05 02:10:08;;;;;;;;;3.25;3.00;;;;;25.95;46.48;101090.22;5037263;28;45357;-56
2022/08/05 02:12:51;;;;;;;;;3.00;2.00;;;;;25.96;46.16;101115.81;5037259;28;46289;-57
2022/08/05 02:15:33;;;;;;;;;4.00;2.75;;;;;25.95;45.96;101122.94;5037192;28;45251;-57
2022/08/05 02:18:31;;;;;;;;;4.25;3.00;;;;;25.94;46.31;101113.25;5041626;28;45263;-53
2022/08/05 02:21:02;;;;;;;;;2.00;2.00;;;;;25.95;46.25;101114.13;5063253;28;44750;-52
2022/08/05 02:23:31;;;;;;;;;2.75;2.75;;;;;25.95;45.75;101116.78;5057234;28;46283;-49
2022/08/05 02:26:01;;;;;;;;;3.00;2.25;;;;;25.93;45.96;101140.78;5051989;28;45561;-51
2022/08/05 02:28:29;;;;;;;;;2.00;2.00;;;;;25.94;46.15;101137.16;5037087;28;45583;-50
2022/08/05 02:30:59;;;;;;;;;3.00;3.00;;;;;25.92;46.08;101134.63;5036552;28;45516;-48
2022/08/05 02:33:26;;;;;;;;;3.75;3.00;;;;;25.90;46.35;101141.84;5036359;28;46160;-51
2022/08/05 02:35:56;;;;;;;;;2.50;2.50;;;;;25.89;46.04;101156.09;5036040;28;45468;-54
2022/08/05 02:38:23;;;;;;;;;2.75;2.75;;;;;25.90;45.65;101152.47;5061660;27;45390;-52
2022/08/05 02:40:50;;;;;;;;;2.00;2.00;;;;;25.91;46.17;101137.38;5063946;27;44841;-49
2022/08/05 02:43:16;;;;;;;;;4.00;2.75;;;;;25.90;46.02;101149.81;5034609;28;46421;-51
2022/08/05 02:45:43;;;;;;;;;2.50;2.50;;;;;25.89;46.29;101134.84;5036107;28;45862;-49
2022/08/05 02:48:09;;;;;;;;;3.00;2.00;;;;;25.88;45.97;101050.00;5036659;28;45255;-51
2022/08/05 02:50:36;;;;;;;;;3.75;3.00;;;;;25.87;45.77;101062.41;5037011;28;45405;-49
2022/08/05 02:53:02;;;;;;;;;3.00;3.00;;;;;25.87;45.83;101081.00;5036176;28;46989;-48
2022/08/05 02:55:30;;;;;;;;;1.75;1.75;;;;;25.87;46.04;101082.81;5036351;28;45631;-49
2022/08/05 02:57:57;;;;;;;;;4.00;2.50;;;;;25.85;45.78;101069.66;5036161;28;45275;-49
2022/08/05 03:00:22;;;;;;;;;2.75;2.75;;;;;25.85;46.08;101082.91;5036267;28;45234;-49
2022/08/05 03:02:49;;;;;;;;;7.00;2.25;;;;;25.86;45.63;101097.06;5035986;28;45350;-49
2022/08/05 03:05:15;;;;;;;;;3.50;3.00;;;;;25.84;46.12;101101.63;5058946;28;45450;-48
2022/08/05 03:07:42;;;;;;;;;4.25;2.75;;;;;25.85;46.23;101117.44;5042213;28;45365;-50
2022/08/05 03:10:08;;;;;;;;;2.75;2.75;;;;;25.84;45.67;101141.47;5036054;28;45318;-49
2022/08/05 03:12:36;;;;;;;;;3.00;2.00;;;;;25.84;45.72;101141.47;5035250;28;45942;-50
2022/08/05 03:15:04;;;;;;;;;2.75;2.00;;;;;25.82;45.39;101136.28;5035073;28;45395;-49
2022/08/05 03:17:30;;;;;;;;;3.25;2.00;;;;;25.80;45.91;101135.53;5035836;28;45349;-51
2022/08/05 03:19:55;;;;;;;;;1.50;1.50;;;;;25.81;45.88;101116.00;5035689;28;45302;-51
2022/08/05 03:22:21;;;;;;;;;3.00;1.75;;;;;25.80;45.43;101103.66;5035859;28;45373;-49
2022/08/05 03:24:48;;;;;;;;;2.00;2.00;;;;;25.80;45.12;101106.31;5036418;28;45467;-51
2022/08/05 03:27:15;;;;;;;;;2.25;2.25;;;;;25.80;45.59;101119.59;5047812;28;45342;-49
2022/08/05 03:29:40;;;;;;;;;2.00;2.00;;;;;25.79;45.07;101123.22;5058434;28;44883;-51
2022/08/05 03:32:08;;;;;;;;;4.50;1.50;;;;;25.77;45.11;101117.16;5037380;28;45366;-51
2022/08/05 03:34:34;;;;;;;;;2.00;2.00;;;;;25.76;44.96;101116.34;5043545;28;45663;-51
2022/08/05 03:37:00;;;;;;;;;3.00;3.00;;;;;25.77;45.13;101117.16;5051120;28;45400;-53
2022/08/05 03:39:25;;;;;;;;;2.00;2.00;;;;;25.77;44.85;101127.78;5038845;28;45312;-51
2022/08/05 03:41:51;;;;;;;;;2.50;2.25;;;;;25.77;45.40;101135.75;5041561;28;46589;-50
2022/08/05 03:44:16;;;;;;;;;5.00;2.00;;;;;25.75;45.02;101135.00;5046225;28;45355;-52
2022/08/05 03:46:41;;;;;;;;;2.50;1.75;;;;;25.76;45.46;101137.56;5052210;28;45820;-51
2022/08/05 03:49:06;;;;;;;;;2.00;2.00;;;;;25.75;45.23;101130.56;5040553;28;45632;-51
2022/08/05 03:51:38;;;;;;;;;4.75;2.00;;;;;25.75;44.80;101127.03;5037049;28;46162;-49
2022/08/05 03:54:07;;;;;;;;;3.25;3.25;;;;;25.75;45.09;101137.66;5055115;28;45259;-53
2022/08/05 03:56:40;;;;;;;;;5.00;2.00;;;;;25.73;44.91;101140.44;5052003;28;45772;-51
2022/08/05 03:59:08;;;;;;;;;2.00;2.00;;;;;25.74;45.14;101146.63;5037605;28;45339;-52
2022/08/05 04:01:38;;;;;;;;;3.00;3.00;;;;;25.74;45.17;101136.00;5034135;28;46168;-50
2022/08/05 04:04:04;;;;;;;;;2.00;2.00;;;;;25.74;44.91;101120.06;5034451;28;45720;-49
2022/08/05 04:06:32;;;;;;;;;3.00;3.00;;;;;25.73;45.16;101118.38;5035642;28;45354;-53
2022/08/05 04:08:58;;;;;;;;;4.00;3.00;;;;;25.73;45.38;101118.38;5035388;28;45658;-49
2022/08/05 04:11:24;;;;;;;;;4.75;2.25;;;;;25.72;44.94;101120.16;5036243;28;47145;-48
2022/08/05 04:13:50;;;;;;;;;2.25;2.25;;;;;25.72;44.79;101127.28;5038524;28;45304;-49
2022/08/05 04:16:15;;;;;;;;;3.25;3.00;;;;;25.69;44.71;101122.19;5038989;28;45337;-50
2022/08/05 04:18:44;;;;;;;;;2.00;2.00;;;;;25.68;44.76;101128.47;5038987;28;45341;-52
2022/08/05 04:21:09;;;;;;;;;2.50;2.00;;;;;25.63;44.80;101126.16;5037613;28;47033;-50
2022/08/05 04:23:35;;;;;;;;;4.00;2.00;;;;;25.56;44.41;101131.06;5038930;28;45459;-51
2022/08/05 04:26:01;;;;;;;;;3.00;3.00;;;;;25.47;44.47;101124.59;5039151;28;45756;-51
2022/08/05 04:28:27;;;;;;;;;2.75;2.75;;;;;25.43;44.90;101130.22;5057357;28;45639;-51
2022/08/05 04:30:52;;;;;;;;;3.00;3.00;;;;;25.38;44.59;101127.88;5054661;28;45193;-52
2022/08/05 04:33:17;;;;;;;;;2.00;2.00;;;;;25.31;44.87;101124.81;5038819;28;46432;-52
2022/08/05 04:35:43;;;;;;;;;6.50;4.00;;;;;25.29;44.90;101116.16;5038763;28;45325;-53
2022/08/05 04:38:09;;;;;;;;;3.25;3.25;;;;;25.28;44.89;101121.53;5044988;28;45416;-53
2022/08/05 04:40:36;;;;;;;;;2.00;2.00;;;;;25.25;44.71;101125.25;5065146;28;45210;-52
2022/08/05 04:43:02;;;;;;;;;3.00;3.00;;;;;25.23;45.45;101126.34;5039354;28;45501;-55
2022/08/05 04:45:28;;;;;;;;;2.75;2.75;;;;;25.19;44.82;101120.38;5038230;28;45437;-52
2022/08/05 04:47:53;;;;;;;;;2.50;2.25;;;;;25.16;45.13;101133.88;5038250;28;45563;-56
2022/08/05 04:50:18;;;;;;;;;3.50;3.50;;;;;25.12;44.94;101130.59;5037788;28;47016;-56
2022/08/05 04:52:44;;;;;;;;;2.00;2.00;;;;;25.08;44.67;101136.22;5038038;28;45496;-55
2022/08/05 04:55:10;;;;;;;;;2.25;2.25;;;;;25.03;45.27;101148.94;5038602;28;45358;-56
2022/08/05 04:57:35;;;;;;;;;3.50;2.50;;;;;24.97;45.15;101153.72;5037496;28;45487;-53
2022/08/05 05:00:02;;;;;;;;;2.00;2.00;;;;;24.93;45.45;101149.59;5037883;28;46057;-50
2022/08/05 05:02:27;;;;;;;;;3.00;3.00;;;;;24.88;45.10;101151.69;5037009;28;45640;-49
2022/08/05 05:04:53;;;;;;;;;3.50;3.00;;;;;24.83;44.83;101145.88;5049883;28;45312;-52
2022/08/05 05:07:18;;;;;;;;;2.50;2.00;;;;;24.79;45.42;101145.25;5049489;28;45405;-52
2022/08/05 05:09:44;;;;;;;;;2.25;2.25;;;;;24.75;45.10;101156.19;5037785;28;46445;-55
2022/08/05 05:12:09;;;;;;;;;3.00;3.00;;;;;24.70;45.72;101162.63;5055920;28;45333;-52
2022/08/05 05:14:35;;;;;;;;;6.50;4.25;;;;;24.63;45.68;101158.69;5054293;28;45294;-54
2022/08/05 05:17:00;;;;;;;;;5.50;4.00;;;;;24.61;45.71;101157.06;5038595;28;45211;-53
2022/08/05 05:19:26;;;;;;;;;3.25;3.25;;;;;24.60;45.77;101163.31;5037527;28;47124;-52
2022/08/05 05:21:51;;;;;;;;;2.75;2.50;;;;;24.56;46.01;101173.28;5036581;28;45488;-52
2022/08/05 05:24:18;;;;;;;;;2.50;2.50;;;;;24.54;46.04;101176.03;5037291;28;50067;-53
2022/08/05 05:26:43;;;;;;;;;3.00;2.25;;;;;24.51;45.82;101175.41;5037669;28;45448;-52
2022/08/05 05:29:08;;;;;;;;;5.00;4.25;;;;;24.49;45.92;101179.94;5037691;28;47641;-53
2022/08/05 05:31:34;;;;;;;;;2.25;2.00;;;;;24.49;46.22;101187.91;5037872;28;48563;-51
2022/08/05 05:33:59;;;;;;;;;4.75;3.00;;;;;24.47;45.72;101188.00;5037600;28;45378;-50
2022/08/05 05:36:24;;;;;;;;;2.00;2.00;;;;;24.46;45.83;101188.97;5038857;28;45366;-50
2022/08/05 05:38:50;;;;;;;;;6.25;3.00;;;;;24.46;46.44;101202.22;5049444;28;47025;-51
2022/08/05 05:41:15;;;;;;;;;4.25;2.00;;;;;24.43;46.41;101197.09;5047289;28;62108;-51
2022/08/05 05:43:40;;;;;;;;;5.25;4.50;;;;;24.40;45.83;101205.25;5039055;28;45906;-52
2022/08/05 05:46:06;;;;;;;;;5.50;2.75;;;;;24.38;46.00;101205.38;5052263;28;45547;-52
2022/08/05 05:48:31;;;;;;;;;4.25;3.00;;;;;24.36;46.00;101207.25;5054080;28;46553;-53
2022/08/05 05:50:57;;;;;;;;;3.00;2.75;;;;;24.38;46.08;101209.78;5037771;28;45412;-56
2022/08/05 05:53:22;;;;;;;;;3.00;2.00;;;;;24.36;46.55;101211.72;5037424;28;45177;-56
2022/08/05 05:55:47;;;;;;;;;2.75;2.75;;;;;24.36;46.31;101217.03;5037304;28;45582;-52
2022/08/05 05:58:12;;;;;;;;;3.00;2.75;;;;;24.33;46.68;101210.09;5037228;28;46581;-52
2022/08/05 06:00:38;;;;;;;;;2.50;1.75;;;;;24.34;46.26;101213.63;5035782;28;45363;-54
2022/08/05 06:03:03;;;;;;;;;3.00;2.00;;;;;24.32;46.24;101219.00;5038046;28;45316;-57
2022/08/05 06:05:29;;;;;;;;;3.75;3.00;;;;;24.31;46.73;101213.81;5037901;28;45640;-52
2022/08/05 06:07:54;;;;;;;;;3.25;2.50;;;;;24.29;46.87;101215.69;5039531;28;47084;-50
2022/08/05 06:10:19;;;;;;;;;3.00;3.00;;;;;24.24;46.51;101226.59;5046294;28;45264;-51
2022/08/05 06:12:45;;;;;;;;;2.00;2.00;;;;;24.23;46.89;101222.25;5057969;28;45230;-53
2022/08/05 06:15:10;;;;;;;;;3.00;3.00;;;;;24.20;46.53;101233.03;5058023;28;45278;-51
2022/08/05 06:17:36;;;;;;;;;4.00;3.00;;;;;24.17;46.52;101234.09;5060261;28;45009;-51
2022/08/05 06:20:03;;;;;;;;;2.25;2.25;;;;;24.17;46.98;101242.03;5044242;28;45500;-48
2022/08/05 06:22:31;;;;;;;;;3.00;3.00;;;;;24.16;47.32;101250.94;5047000;28;45376;-51
2022/08/05 06:24:57;;;;;;;;;3.00;3.00;;;;;24.14;46.87;101244.03;5059512;28;45335;-50
2022/08/05 06:27:22;;;;;;;;;3.00;2.00;;;;;24.12;47.29;101252.09;5050636;28;45339;-53
2022/08/05 06:29:47;;;;;;;;;3.00;2.75;;;;;24.09;47.29;101258.41;5042371;28;45402;-51
2022/08/05 06:32:13;;;;;;;;;3.00;3.00;;;;;24.08;47.02;101255.88;5041383;28;45585;-51
2022/08/05 06:34:38;;;;;;;;;5.25;3.00;;;;;24.05;46.87;101259.56;5038607;28;45367;-53
2022/08/05 06:37:03;;;;;;;;;6.00;3.00;;;;;24.02;47.06;101251.81;5040459;28;46346;-52
2022/08/05 06:39:29;;;;;;;;;4.00;4.00;;;;;24.02;47.48;101254.47;5039756;28;45200;-50
2022/08/05 06:41:56;;;;;;;;;4.00;3.00;;;;;23.99;47.42;101259.94;5038069;28;45384;-51
2022/08/05 06:44:21;;;;;;;;;4.25;4.25;;;;;23.96;47.05;101251.34;5038250;28;45433;-51
2022/08/05 06:46:47;;;;;;;;;5.00;3.00;;;;;23.93;47.70;101250.56;5036753;28;45944;-51
2022/08/05 06:49:12;;;;;;;;;3.00;3.00;;;;;23.89;47.62;101250.84;5036704;28;45425;-49
2022/08/05 06:51:37;;;;;;;;;5.00;3.00;;;;;23.87;47.15;101244.81;5036284;28;45405;-52
2022/08/05 06:54:03;;;;;;;;;3.75;3.00;;;;;23.85;47.02;101252.03;5037204;28;45927;-51
2022/08/05 06:56:30;;;;;;;;;2.25;2.25;;;;;23.86;47.51;101256.38;5036222;28;46422;-52
2022/08/05 06:58:56;;;;;;;;;5.00;3.50;;;;;23.84;47.65;101248.50;5035800;28;45858;-52
2022/08/05 07:01:22;;;;;;;;;3.50;3.00;;;;;23.86;47.87;101256.38;5036305;28;45175;-49
2022/08/05 07:03:47;;;;;;;;;3.50;2.50;;;;;23.85;47.68;101250.22;5036202;28;45422;-53
2022/08/05 07:06:12;;;;;;;;;3.00;3.00;;;;;23.86;47.87;101249.25;5034915;28;47868;-53
2022/08/05 07:08:38;;;;;;;;;4.25;4.00;;;;;23.86;47.64;101251.06;5035961;28;45383;-57
2022/08/05 07:11:04;;;;;;;;;5.75;3.25;;;;;23.85;47.25;101259.97;5037079;28;45365;-51
2022/08/05 07:18:57;;;;;;;;;4.25;4.00;;;;;23.79;47.40;101266.50;5035739;28;45688;-53
2022/08/05 07:21:22;;;;;;;;;6.00;4.00;;;;;23.76;47.71;101278.09;5035732;28;51348;-49
2022/08/05 07:23:48;;;;;;;;;2.50;2.50;;;;;23.76;47.73;101272.81;5035767;28;45742;-51
2022/08/05 07:26:13;;;;;;;;;2.75;2.75;;;;;23.75;47.67;101271.13;5036843;28;56272;-50
2022/08/05 07:28:38;;;;;;;;;4.25;4.25;;;;;23.76;47.68;101272.81;5039506;28;57593;-50
2022/08/05 07:31:06;;;;;;;;;5.50;4.00;;;;;23.77;47.81;101279.81;5042696;28;48039;-53
2022/08/05 07:33:31;;;;;;;;;6.00;4.25;;;;;23.75;47.50;101279.06;5038000;28;45203;-60
2022/08/05 07:35:56;;;;;;;;;4.50;4.50;;;;;23.77;47.94;101290.38;5041140;28;49250;-57
2022/08/05 07:38:22;;;;;;;;;4.00;4.00;;;;;23.76;47.81;101293.97;5041908;28;45382;-51
2022/08/05 07:40:47;;;;;;;;;6.50;5.00;;;;;23.78;47.79;101288.59;5043620;28;45380;-52
2022/08/05 07:43:15;;;;;;;;;6.25;6.25;;;;;23.80;47.72;101291.16;5049476;28;45366;-49
2022/08/05 07:45:44;;;;;;;;;4.75;4.75;;;;;23.81;47.70;101303.44;5052266;28;45330;-52
2022/08/05 07:48:12;;;;;;;;;7.75;5.00;;;;;23.82;47.96;101302.50;5062104;27;45032;-52
2022/08/05 07:50:37;;;;;;;;;5.00;5.00;;;;;23.83;47.84;101293.63;5040083;28;45453;-52
2022/08/05 07:53:03;;;;;;;;;5.75;5.50;;;;;23.84;47.91;101300.59;5036625;28;45346;-53
2022/08/05 07:55:30;;;;;;;;;5.00;4.75;;;;;23.85;47.88;101311.09;5035218;28;46304;-51
2022/08/05 07:57:55;;;;;;;;;5.00;4.00;;;;;23.87;48.15;101300.41;5034947;28;45595;-52
2022/08/05 08:00:21;;;;;;;;;5.25;4.25;;;;;23.92;47.89;101311.56;5041686;28;45221;-52
2022/08/05 08:02:46;;;;;;;;;3.00;3.00;;;;;23.93;48.33;101313.25;5045937;28;45380;-51
2022/08/05 08:05:11;;;;;;;;;6.00;4.00;;;;;23.93;48.36;101314.09;5049195;28;46208;-51
2022/08/05 08:07:37;;;;;;;;;4.00;4.00;;;;;23.96;48.34;101313.13;5051257;28;45326;-50
2022/08/05 08:10:03;;;;;;;;;7.75;6.75;;;;;23.97;47.95;101319.25;5036161;28;45331;-53
2022/08/05 08:12:29;;;;;;;;;4.50;4.50;;;;;23.97;47.83;101327.19;5036801;28;45542;-50
2022/08/05 08:14:54;;;;;;;;;6.75;5.50;;;;;23.98;48.21;101334.19;5036060;28;46248;-51
2022/08/05 08:17:20;;;;;;;;;4.50;3.75;;;;;23.99;48.20;101333.25;5034959;28;45788;-52
2022/08/05 08:19:45;;;;;;;;;8.00;5.00;;;;;24.00;48.26;101337.59;5034703;28;45282;-51
2022/08/05 08:22:10;;;;;;;;;3.50;3.25;;;;;24.01;47.83;101334.00;5045296;28;45307;-53
2022/08/05 08:24:37;;;;;;;;;4.25;3.75;;;;;24.03;47.84;101337.41;5056570;28;46128;-53
2022/08/05 08:27:03;;;;;;;;;4.25;4.25;;;;;24.05;48.05;101344.31;5035807;28;45740;-55
2022/08/05 08:29:28;;;;;;;;;5.75;4.00;;;;;24.08;47.67;101351.19;5034081;28;45444;-52
2022/08/05 08:31:54;;;;;;;;;6.00;4.25;;;;;24.08;48.26;101346.78;5035230;28;45317;-52
2022/08/05 08:34:22;;;;;;;;;8.00;5.00;;;;;24.08;48.00;101343.25;5041335;28;45992;-50
2022/08/05 08:36:47;;;;;;;;;3.00;2.00;;;;;24.09;47.86;101353.75;5048059;28;45127;-50
2022/08/05 08:39:13;;;;;;;;;6.25;5.00;;;;;24.13;48.43;101349.13;5040256;28;45866;-53
2022/08/05 08:41:48;;;;;;;;;7.75;5.50;;;;;24.15;48.53;101362.25;5034953;28;45532;-53
2022/08/05 08:44:17;;;;;;;;;8.25;5.00;;;;;24.14;48.18;101355.25;5034758;28;47186;-53
2022/08/05 08:46:43;;;;;;;;;8.75;4.50;;;;;24.12;48.29;101358.03;5034503;28;46044;-54
2022/08/05 08:49:12;;;;;;;;;6.00;6.00;;;;;24.14;47.35;101361.44;5035131;28;45447;-52
2022/08/05 08:51:40;;;;;;;;;6.00;4.00;;;;;24.12;47.23;101362.44;5034928;28;45365;-52
2022/08/05 08:54:05;;;;;;;;;6.50;4.25;;;;;24.23;47.39;101365.28;5034989;28;48065;-53
2022/08/05 08:56:31;;;;;;;;;5.50;5.50;;;;;24.29;46.88;101370.19;5042244;28;45373;-52
2022/08/05 08:58:58;;;;;;;;;8.00;5.00;;;;;24.29;46.96;101369.34;5063360;28;45413;-51
2022/08/05 09:01:24;;;;;;;;;7.25;5.25;;;;;24.29;47.09;101374.63;5039300;28;45348;-55
2022/08/05 09:03:52;;;;;;;;;4.50;4.50;;;;;24.28;46.84;101373.78;5045582;28;47527;-52
2022/08/05 09:06:17;;;;;;;;;9.25;4.75;;;;;24.29;47.01;101380.81;5051525;28;45738;-52
2022/08/05 09:08:42;;;;;;;;;4.25;4.25;;;;;24.32;46.91;101385.03;5038019;28;45460;-53
2022/08/05 09:11:08;;;;;;;;;5.25;4.25;;;;;24.34;46.50;101383.16;5038061;28;45385;-51
2022/08/05 09:13:35;;;;;;;;;6.75;5.50;;;;;24.33;46.31;101376.16;5038374;28;46165;-51
2022/08/05 09:16:01;;;;;;;;;8.75;5.25;;;;;24.36;46.66;101381.25;5047855;28;45219;-54
2022/08/05 09:18:27;;;;;;;;;5.50;5.50;;;;;24.38;46.37;101369.63;5042207;28;45356;-52
2022/08/05 09:20:52;;;;;;;;;3.75;3.75;;;;;24.44;46.60;101378.09;5038307;28;45639;-51
2022/08/05 09:23:19;;;;;;;;;5.75;5.75;;;;;24.44;46.46;101375.44;5037626;28;45992;-51
2022/08/05 09:25:47;;;;;;;;;5.75;5.00;;;;;24.44;46.56;101372.81;5037407;28;45577;-48
2022/08/05 09:28:15;;;;;;;;;5.00;5.00;;;;;24.47;46.31;101375.28;5037820;28;45229;-50
2022/08/05 09:31:05;;;;;;;;;4.75;4.75;;;;;24.51;46.34;101379.44;5037729;28;45453;-56
2022/08/05 09:33:31;;;;;;;;;5.25;5.25;;;;;24.50;45.53;101386.50;5037706;28;45758;-54
2022/08/05 09:36:01;;;;;;;;;6.00;5.00;;;;;24.49;46.06;101383.97;5037506;28;45405;-55
2022/08/05 09:38:27;;;;;;;;;4.75;4.75;;;;;24.50;45.59;101383.88;5037822;28;45350;-55
2022/08/05 09:40:53;;;;;;;;;4.00;4.00;;;;;24.52;46.29;101381.13;5037714;28;45600;-55
2022/08/05 09:43:34;;;;;;;;;7.00;5.25;;;;;24.55;46.04;101384.44;5038133;28;46146;-52
2022/08/05 09:46:00;;;;;;;;;4.00;4.00;;;;;24.59;45.86;101389.53;5028008;28;45343;-52
2022/08/05 09:48:28;;;;;;;;;9.50;6.00;;;;;24.62;45.85;101387.53;5058169;28;44737;-51
2022/08/05 09:50:59;;;;;;;;;6.75;6.25;;;;;24.60;45.03;101384.13;5043354;28;45475;-50
2022/08/05 09:53:26;;;;;;;;;5.50;5.25;;;;;24.63;45.38;101389.25;5037057;28;46868;-62
2022/08/05 09:55:57;;;;;;;;;5.75;5.75;;;;;24.64;45.17;101390.94;5037089;28;45764;-60
2022/08/05 09:58:24;;;;;;;;;6.50;5.50;;;;;24.66;45.13;101388.19;5037399;28;45335;-60
2022/08/05 10:00:54;;;;;;;;;7.50;6.75;;;;;24.69;45.36;101394.19;5017246;28;45312;-58
2022/08/05 10:03:20;;;;;;;;;6.50;6.00;;;;;24.72;45.58;101395.78;5018891;28;47197;-66
2022/08/05 10:05:46;;;;;;;;;8.75;7.00;;;;;24.72;45.47;101397.59;5044372;28;45698;-53
2022/08/05 10:08:11;;;;;;;;;10.75;7.75;;;;;24.73;45.49;101394.81;5053239;28;45447;-53
2022/08/05 10:10:45;;;;;;;;;12.00;8.25;;;;;24.75;45.10;101395.59;5048065;28;45473;-55
2022/08/05 10:13:24;;;;;;;;;9.00;7.00;;;;;24.77;45.28;101390.16;5038290;28;45340;-56
2022/08/05 10:15:49;;;;;;;;;8.75;7.75;;;;;24.79;44.80;101393.56;5043266;28;45558;-55
2022/08/05 10:18:21;;;;;;;;;12.00;10.25;;;;;24.78;44.99;101391.88;5038948;28;45726;-55
2022/08/05 10:20:49;;;;;;;;;7.75;7.75;;;;;24.80;45.20;101387.31;5052469;28;45772;-55
2022/08/05 10:23:24;;;;;;;;;10.50;9.00;;;;;24.82;45.49;101398.69;5048177;28;46102;-53
2022/08/05 10:25:49;;;;;;;;;11.00;9.00;;;;;24.82;45.50;101391.56;5052642;28;45730;-56
2022/08/05 10:28:16;;;;;;;;;10.00;8.00;;;;;24.83;45.34;101390.63;5038469;28;45227;-55
2022/08/05 10:30:42;;;;;;;;;10.00;8.25;;;;;24.87;44.68;101404.53;5043694;28;45551;-55
2022/08/05 10:33:07;;;;;;;;;10.25;8.00;;;;;24.90;44.87;101401.69;5059599;28;45046;-54
2022/08/05 10:35:34;;;;;;;;;9.50;7.75;;;;;24.94;44.85;101397.03;5038398;28;45402;-53
2022/08/05 10:38:01;;;;;;;;;10.00;7.50;;;;;24.98;44.70;101399.38;5037299;28;45335;-53
2022/08/05 10:40:35;;;;;;;;;8.75;7.50;;;;;25.05;44.59;101396.34;5036830;28;45386;-54
2022/08/05 10:43:08;;;;;;;;;8.00;7.00;;;;;25.09;44.26;101392.50;5035780;28;46243;-54
2022/08/05 10:45:34;;;;;;;;;8.00;7.25;;;;;25.12;44.25;101389.66;5035832;28;45813;-55
2022/08/05 10:48:33;;;;;;;;;10.00;6.00;;;;;25.15;43.71;101384.16;5046783;28;45484;-56
2022/08/05 10:51:09;;;;;;;;;8.00;7.25;;;;;25.20;43.36;101392.66;5038866;28;45526;-58
2022/08/05 10:53:44;;;;;;;;;9.00;6.75;;;;;25.22;43.78;101390.75;5036704;28;45576;-56
2022/08/05 10:56:14;;;;;;;;;7.25;7.25;;;;;25.25;43.34;101401.16;5036541;28;45673;-55
2022/08/05 10:59:07;;;;;;;;;9.00;9.00;;;;;25.28;43.75;101400.97;5036314;28;45375;-57
2022/08/05 11:01:42;;;;;;;;;7.00;7.00;;;;;25.32;43.75;101399.78;5040417;28;45979;-55
2022/08/05 11:04:16;;;;;;;;;6.50;6.50;;;;;25.35;43.48;101412.03;5046290;28;46512;-56
2022/08/05 11:06:59;;;;;;;;;9.00;7.00;;;;;25.39;43.78;101412.66;5040581;28;45316;-57
2022/08/05 11:09:27;;;;;;;;;7.75;6.75;;;;;25.39;43.24;101407.34;5036546;28;45385;-55
2022/08/05 11:11:54;;;;;;;;;8.00;7.00;;;;;25.39;43.06;101418.81;5035970;28;45553;-58
2022/08/05 11:14:37;;;;;;;;;6.00;6.00;;;;;25.41;42.24;101416.09;5035933;28;46047;-57
2022/08/05 11:17:25;;;;;;;;;6.25;6.25;;;;;25.41;43.07;101416.09;5036057;28;45448;-57
2022/08/05 11:19:52;;;;;;;;;8.00;6.25;;;;;25.43;42.79;101414.16;5035251;28;45283;-57
2022/08/05 11:22:44;;;;;;;;;7.50;6.75;;;;;25.43;42.33;101419.47;5035833;28;45236;-57
2022/08/05 11:25:42;;;;;;;;;8.00;8.00;;;;;25.45;42.50;101417.56;5034391;28;47270;-57
2022/08/05 11:28:10;;;;;;;;;6.25;6.25;;;;;25.45;42.28;101410.47;5035775;28;45675;-57
2022/08/05 11:30:54;;;;;;;;;8.75;5.00;;;;;25.47;42.13;101411.19;5035938;28;45312;-57
2022/08/05 11:33:30;;;;;;;;;8.00;8.00;;;;;25.50;42.50;101412.81;5035935;28;45533;-57